Hanjin Gwanseum — VRNY4 — position and weather

sailwx.info

Track history (hours):
 
Tides and Currents Weather Stations Pressure Air Temp Water Temp Dewpoint Dewpoint Depression Visibility Wind Speed Wind Dir Waves Ship Positions

Hanjin Gwanseum

Last reported at 2018-Jul-17 22:49 UTC. Time now 2018-Jul-23 04:15 UTC.
Position N 30°17' E 032°26'.

Length 337 m; draft 14.4 m.

Type: Ship (hazmat cat D). MMSI: 477699600.

Date/timePositionNaut miles runAvg speedWind from/ knotsBaromVisibWave heightAir tempDewpointWater temp
2018-Jul-17 22:49N 30°17' E 032°26'17 6.7
2018-Jul-17 20:17N 30°33' E 032°19'3 6.9
2018-Jul-17 19:52N 30°36' E 032°19'3 7.1
2018-Jul-17 19:30N 30°38' E 032°20'4 7.7
2018-Jul-17 19:01N 30°42' E 032°21'10 8.6
2018-Jul-17 17:51N 30°52' E 032°19'3 9.1
2018-Jul-17 17:30N 30°55' E 032°19'3 6.9
2018-Jul-17 17:01N 30°58' E 032°19'4 8.4
2018-Jul-17 16:31N 31°03' E 032°19'4 7.6
2018-Jul-17 16:01N 31°06' E 032°19'4 8.3
2018-Jul-17 15:30N 31°10' E 032°20'7 8.5
2018-Jul-17 14:39N 31°17' E 032°22'10 8.6
2018-Jul-17 13:29N 31°27' E 032°24'11 0.6
2018-Jul-16 17:40N 31°32' E 032°12'316.9
2018-Jul-16 17:30N 31°34' E 032°10'1717.4
2018-Jul-16 16:30N 31°46' E 031°55'1218.4
2018-Jul-16 15:51N 31°51' E 031°42'39719.0
2018-Jul-15 19:00N 33°54' E 024°12'68219.2 320 / 121008.310.8 27.024.126.0
2018-Jul-14 07:30N 37°26' E 010°54'919.1
2018-Jul-14 07:00N 37°28' E 010°42'918.7
2018-Jul-14 06:30N 37°30' E 010°31'1018.8
2018-Jul-14 06:00N 37°33' E 010°19'918.7
2018-Jul-14 05:30N 37°34' E 010°08'1018.8
2018-Jul-14 05:00N 37°34' E 009°56'11718.8
2018-Jul-13 22:46N 37°30' E 007°28'2119.0
2018-Jul-13 21:39N 37°28' E 007°02'318.7
2018-Jul-13 21:30N 37°28' E 006°58'918.8
2018-Jul-13 21:00N 37°27' E 006°46'9586.2
2018-Jul-13 21:00N 37°24' E 006°36'2 4.9 120 / 221016.4 5.4 27.024.124.0
2018-Jul-13 20:30N 37°26' E 006°35'918.1
2018-Jul-13 20:00N 37°25' E 006°23'918.0
2018-Jul-13 19:30N 37°24' E 006°12'917.7
2018-Jul-13 19:00N 37°23' E 006°01'917.2
2018-Jul-13 18:30N 37°22' E 005°50'3017.1
2018-Jul-13 16:46N 37°21' E 005°13'517.6
2018-Jul-13 16:30N 37°21' E 005°07'917.8
2018-Jul-13 16:00N 37°19' E 004°56'918.0
2018-Jul-13 15:30N 37°18' E 004°45'917.9
2018-Jul-13 15:00N 37°17' E 004°33'917.9
2018-Jul-13 14:30N 37°16' E 004°22'1817.6
2018-Jul-13 13:30N 37°14' E 004°00'2617.2
2018-Jul-13 11:58N 37°11' E 003°27'817.8
2018-Jul-13 11:30N 37°11' E 003°17'918.2
2018-Jul-13 11:00N 37°10' E 003°06'1218.4
2018-Jul-13 10:19N 37°08' E 002°50'4419.1
2018-Jul-13 08:02N 36°60' E 001°57'119.7
2018-Jul-13 08:00N 36°60' E 001°56'1819.2
2018-Jul-13 07:03N 36°56' E 001°33'218.8
2018-Jul-13 06:57N 36°55' E 001°31'818.7
2018-Jul-13 06:30N 36°53' E 001°21'1018.6
2018-Jul-13 05:59N 36°52' E 001°09'918.4
2018-Jul-13 05:28N 36°50' E 000°57'918.2
2018-Jul-13 05:00N 36°48' E 000°47'1018.3
2018-Jul-13 04:29N 36°46' E 000°35'918.5
2018-Jul-13 04:00N 36°44' E 000°24'1018.8
2018-Jul-13 03:29N 36°43' E 000°13'918.7
2018-Jul-13 03:00N 36°41' E 000°02'1018.5
2018-Jul-13 02:29N 36°39' W 000°10'918.4
2018-Jul-13 01:58N 36°37' W 000°22'1018.1
2018-Jul-13 01:24N 36°35' W 000°34'718.0
2018-Jul-13 01:00N 36°33' W 000°43'918.3
2018-Jul-13 00:29N 36°32' W 000°54'2718.8
2018-Jul-12 23:02N 36°26' W 001°28'5219.5
2018-Jul-12 20:22N 36°17' W 002°31'719.2
2018-Jul-12 20:00N 36°16' W 002°40'12420.1
2018-Jul-12 13:50N 36°01' W 005°13'722.0
2018-Jul-12 13:30N 35°59' W 005°21'10919.8
2018-Jul-12 08:00N 36°06' W 007°36'814.3 260 / 71015.410.8 21.016.120.0
2018-Jul-12 07:27N 36°12' W 007°42'1518.6
2018-Jul-12 06:40N 36°16' W 007°60'418.4
2018-Jul-12 06:27N 36°17' W 008°04'1118.3
2018-Jul-12 05:52N 36°20' W 008°17'618.4
2018-Jul-12 05:30N 36°22' W 008°25'1918.4
2018-Jul-12 04:29N 36°27' W 008°47'2818.5
2018-Jul-12 02:57N 36°37' W 009°21'919.4
2018-Jul-12 02:30N 36°43' W 009°29'1018.1
2018-Jul-12 01:58N 36°51' W 009°35'1119.0
2018-Jul-12 01:24N 37°01' W 009°38'1019.3
2018-Jul-12 00:54N 37°11' W 009°41'2219.4
2018-Jul-11 23:47N 37°32' W 009°46'819.3
2018-Jul-11 23:20N 37°40' W 009°48'619.2
2018-Jul-11 23:00N 37°47' W 009°50'1019.2
2018-Jul-11 22:30N 37°56' W 009°53'918.9
2018-Jul-11 22:00N 38°05' W 009°55'919.1
2018-Jul-11 21:30N 38°14' W 009°58'1019.3
2018-Jul-11 21:00N 38°24' W 010°01'1019.5
2018-Jul-11 20:31N 38°33' W 010°04'1019.5
2018-Jul-11 20:00N 38°43' W 010°05'8499.9
2018-Jul-11 20:00N 38°36' W 010°00'1735.3 350 / 191017.4 5.4 19.017.418.0
2018-Jul-11 19:30N 38°53' W 010°05'1019.5
2018-Jul-11 19:00N 39°02' W 010°05'1019.6
2018-Jul-11 18:30N 39°12' W 010°05'1019.2
2018-Jul-11 18:00N 39°22' W 010°06'1019.2
2018-Jul-11 17:29N 39°32' W 010°06'919.2
2018-Jul-11 17:00N 39°41' W 010°06'1419.2
2018-Jul-11 16:18N 39°55' W 010°07'719.1
2018-Jul-11 15:55N 40°02' W 010°07'16017.9
2018-Jul-11 07:00N 42°42' W 010°06'25319.8 020 / 271018.4 5.4 19.017.417.0
2018-Jul-10 18:11N 46°33' W 007°39'419.1
2018-Jul-10 17:59N 46°36' W 007°36'1019.1
2018-Jul-10 17:29N 46°45' W 007°30'918.9
2018-Jul-10 17:00N 46°53' W 007°24'918.6
2018-Jul-10 16:30N 47°01' W 007°17'918.6
2018-Jul-10 16:00N 47°09' W 007°11'918.8
2018-Jul-10 15:30N 47°17' W 007°04'918.7
2018-Jul-10 15:00N 47°25' W 006°57'1019.0
2018-Jul-10 14:30N 47°33' W 006°50'918.9
2018-Jul-10 14:00N 47°41' W 006°42'917.9
2018-Jul-10 13:30N 47°50' W 006°37'918.4
2018-Jul-10 13:00N 47°58' W 006°30'918.0
2018-Jul-10 12:30N 48°06' W 006°25'1318.0
2018-Jul-10 11:48N 48°17' W 006°16'517.8
2018-Jul-10 11:30N 48°22' W 006°12'917.9
2018-Jul-10 11:00N 48°30' W 006°06'1018.1
2018-Jul-10 10:26N 48°39' W 005°59'818.3
2018-Jul-10 10:00N 48°46' W 005°54'917.8
2018-Jul-10 09:30N 48°53' W 005°47'917.1
2018-Jul-10 09:00N 48°58' W 005°36'1315.5
2018-Jul-10 08:11N 49°04' W 005°19'314.6
2018-Jul-10 08:00N 49°05' W 005°16'815.0
2018-Jul-10 07:29N 49°09' W 005°05'816.8
2018-Jul-10 07:00N 49°13' W 004°55'1018.7
2018-Jul-10 06:27N 49°19' W 004°41'919.0
2018-Jul-10 05:59N 49°23' W 004°29'1218.7
2018-Jul-10 05:21N 49°29' W 004°14'918.2
2018-Jul-10 04:53N 49°34' W 004°02'1317.6
2018-Jul-10 04:09N 49°40' W 003°45'1717.1
2018-Jul-10 03:10N 49°49' W 003°23'316.9
2018-Jul-10 02:59N 49°50' W 003°19'817.2
2018-Jul-10 02:30N 49°54' W 003°07'917.6
2018-Jul-10 02:00N 49°59' W 002°56'918.0
2018-Jul-10 01:31N 50°02' W 002°43'918.5
2018-Jul-10 01:00N 50°05' W 002°29'1019.0
2018-Jul-10 00:28N 50°08' W 002°14'1019.8
2018-Jul-09 23:57N 50°13' W 001°60'919.9
2018-Jul-09 23:30N 50°17' W 001°47'2020.2
2018-Jul-09 22:30N 50°26' W 001°19'1020.3
2018-Jul-09 22:00N 50°30' W 001°04'815.3
2018-Jul-09 21:30N 50°37' W 000°58'5 9.3
2018-Jul-09 21:00N 50°41' W 000°57'713.6
2018-Jul-09 20:31N 50°45' W 001°06'714.4
2018-Jul-09 20:01N 50°46' W 001°17'4 7.7
2018-Jul-09 19:31N 50°50' W 001°19'4 8.8
2018-Jul-09 19:01N 50°53' W 001°24'2 4.5
2018-Jul-09 18:30N 50°54' W 001°27'0 0.3
2018-Jul-09 17:51N 50°54' W 001°27'0 0.0
2018-Jul-09 17:24N 50°54' W 001°27'0 0.0
2018-Jul-09 16:54N 50°54' W 001°27'0 0.0
2018-Jul-09 16:21N 50°54' W 001°27'0 0.0
2018-Jul-09 15:54N 50°54' W 001°27'0 0.0
2018-Jul-09 15:27N 50°54' W 001°27'0 0.0
2018-Jul-09 15:00N 50°54' W 001°27'0 0.0
2018-Jul-09 14:27N 50°54' W 001°27'0 0.0
2018-Jul-09 13:54N 50°54' W 001°27'0 0.0
2018-Jul-09 13:27N 50°54' W 001°27'0 0.0
2018-Jul-09 12:57N 50°54' W 001°27'0 0.0
2018-Jul-09 12:27N 50°54' W 001°27'0 0.0
2018-Jul-09 11:57N 50°54' W 001°27'0 0.0
2018-Jul-09 11:30N 50°54' W 001°27'0 0.0
2018-Jul-09 11:00N 50°54' W 001°27'0 0.0
2018-Jul-09 10:30N 50°54' W 001°27'0 0.0
2018-Jul-09 10:00N 50°54' W 001°27'0 0.0
2018-Jul-09 09:30N 50°54' W 001°27'0 0.0
2018-Jul-09 09:00N 50°54' W 001°27'0 0.0
2018-Jul-09 08:30N 50°54' W 001°27'0 0.0
2018-Jul-09 08:00N 50°54' W 001°27'0 0.0
2018-Jul-09 07:24N 50°54' W 001°27'0 0.0
2018-Jul-09 07:00N 50°54' W 001°27'0 0.0
2018-Jul-09 06:21N 50°54' W 001°27'0 0.0
2018-Jul-09 06:00N 50°54' W 001°27'0 0.0
2018-Jul-09 05:30N 50°54' W 001°27'0 0.0
2018-Jul-09 04:54N 50°54' W 001°27'0 0.0
2018-Jul-09 04:30N 50°54' W 001°27'0 0.0
2018-Jul-09 04:00N 50°54' W 001°27'0 0.0
2018-Jul-09 03:30N 50°54' W 001°27'0 0.0
2018-Jul-09 03:00N 50°54' W 001°27'0 0.0
2018-Jul-09 02:24N 50°54' W 001°27'0 0.0
2018-Jul-09 02:00N 50°54' W 001°27'0 0.0
2018-Jul-09 01:27N 50°54' W 001°27'0 0.0
2018-Jul-09 01:00N 50°54' W 001°27'0 0.0
2018-Jul-09 00:30N 50°54' W 001°27'0 0.0
2018-Jul-09 00:00N 50°54' W 001°27'0 0.0
2018-Jul-08 23:30N 50°54' W 001°27'0 0.0
2018-Jul-08 22:57N 50°54' W 001°27'0 0.0
2018-Jul-08 22:27N 50°54' W 001°27'0 0.0
2018-Jul-08 22:00N 50°54' W 001°27'0 0.0
2018-Jul-08 21:30N 50°54' W 001°27'0 0.0
2018-Jul-08 21:00N 50°54' W 001°27'0 0.0
2018-Jul-08 20:30N 50°54' W 001°27'0 0.0
2018-Jul-08 20:00N 50°54' W 001°27'0 0.0
2018-Jul-08 19:30N 50°54' W 001°27'0 0.0
2018-Jul-08 19:00N 50°54' W 001°27'0 0.0
2018-Jul-08 18:30N 50°54' W 001°27'0 0.0
2018-Jul-08 18:00N 50°54' W 001°27'0 0.0
2018-Jul-08 17:30N 50°54' W 001°27'0 0.0
2018-Jul-08 17:00N 50°54' W 001°27'0 0.0
2018-Jul-08 16:30N 50°54' W 001°27'0 0.0
2018-Jul-08 15:54N 50°54' W 001°27'0 0.0
2018-Jul-08 15:30N 50°54' W 001°27'0 0.0
2018-Jul-08 14:51N 50°54' W 001°27'0 0.0
2018-Jul-08 14:30N 50°54' W 001°27'0 0.0
2018-Jul-08 13:57N 50°54' W 001°27'0 0.0
2018-Jul-08 13:30N 50°54' W 001°27'0 0.0
2018-Jul-08 12:57N 50°54' W 001°27'0 0.0
2018-Jul-08 12:27N 50°54' W 001°27'0 0.0
2018-Jul-08 12:00N 50°54' W 001°27'0 0.0
2018-Jul-08 11:30N 50°54' W 001°27'0 0.0
2018-Jul-08 10:54N 50°54' W 001°27'0 0.0
2018-Jul-08 10:24N 50°54' W 001°27'0 0.0
2018-Jul-08 09:54N 50°54' W 001°27'0 0.0
2018-Jul-08 09:30N 50°54' W 001°27'1 1.1
2018-Jul-08 09:00N 50°54' W 001°26'1 1.8
2018-Jul-08 08:30N 50°54' W 001°25'4 7.3
2018-Jul-08 08:00N 50°51' W 001°21'4 8.2
2018-Jul-08 07:30N 50°48' W 001°19'611.4
2018-Jul-08 07:01N 50°46' W 001°10'816.3
2018-Jul-08 06:30N 50°43' W 000°58'612.5
2018-Jul-08 06:01N 50°36' W 000°57'1 2.1
2018-Jul-08 05:31N 50°36' W 000°59'2 5.0
2018-Jul-08 05:01N 50°36' W 001°03'0 0.2
2018-Jul-08 04:30N 50°36' W 001°03'0 0.0
2018-Jul-08 04:00N 50°36' W 001°03'0 0.0
2018-Jul-08 03:30N 50°36' W 001°03'0 0.0
2018-Jul-08 03:00N 50°36' W 001°03'0 0.0
2018-Jul-08 02:27N 50°36' W 001°03'0 0.0
2018-Jul-08 02:00N 50°36' W 001°03'0 0.0
2018-Jul-08 01:30N 50°36' W 001°03'0 0.0
2018-Jul-08 01:00N 50°36' W 001°03'0 0.0
2018-Jul-08 00:30N 50°36' W 001°03'0 0.1
2018-Jul-08 00:00N 50°36' W 001°03'0 0.3
2018-Jul-07 23:30N 50°36' W 001°03'0 0.2
2018-Jul-07 23:00N 50°36' W 001°03'  
Track history (hours):
 
Tides and Currents Weather Stations Pressure Air Temp Water Temp Dewpoint Dewpoint Depression Visibility Wind Speed Wind Dir Waves Ship Positions

Hanjin Gwanseum

Last reported at 2018-Jul-17 22:49 UTC. Time now 2018-Jul-23 04:15 UTC.
Position N 30°17' E 032°26'.

Length 337 m; draft 14.4 m.

Type: Ship (hazmat cat D). MMSI: 477699600.

Date/timePositionNaut miles runAvg speedWind from/ knotsBaromVisibWave heightAir tempDewpointWater temp
2018-Jul-17 22:49N 30°17' E 032°26'17 6.7
2018-Jul-17 20:17N 30°33' E 032°19'3 6.9
2018-Jul-17 19:52N 30°36' E 032°19'3 7.1
2018-Jul-17 19:30N 30°38' E 032°20'4 7.7
2018-Jul-17 19:01N 30°42' E 032°21'10 8.6
2018-Jul-17 17:51N 30°52' E 032°19'3 9.1
2018-Jul-17 17:30N 30°55' E 032°19'3 6.9
2018-Jul-17 17:01N 30°58' E 032°19'4 8.4
2018-Jul-17 16:31N 31°03' E 032°19'4 7.6
2018-Jul-17 16:01N 31°06' E 032°19'4 8.3
2018-Jul-17 15:30N 31°10' E 032°20'7 8.5
2018-Jul-17 14:39N 31°17' E 032°22'10 8.6
2018-Jul-17 13:29N 31°27' E 032°24'11 0.6
2018-Jul-16 17:40N 31°32' E 032°12'316.9
2018-Jul-16 17:30N 31°34' E 032°10'1717.4
2018-Jul-16 16:30N 31°46' E 031°55'1218.4
2018-Jul-16 15:51N 31°51' E 031°42'39719.0
2018-Jul-15 19:00N 33°54' E 024°12'68219.2 320 / 121008.310.8 27.024.126.0
2018-Jul-14 07:30N 37°26' E 010°54'919.1
2018-Jul-14 07:00N 37°28' E 010°42'918.7
2018-Jul-14 06:30N 37°30' E 010°31'1018.8
2018-Jul-14 06:00N 37°33' E 010°19'918.7
2018-Jul-14 05:30N 37°34' E 010°08'1018.8
2018-Jul-14 05:00N 37°34' E 009°56'11718.8
2018-Jul-13 22:46N 37°30' E 007°28'2119.0
2018-Jul-13 21:39N 37°28' E 007°02'318.7
2018-Jul-13 21:30N 37°28' E 006°58'918.8
2018-Jul-13 21:00N 37°27' E 006°46'9586.2
2018-Jul-13 21:00N 37°24' E 006°36'2 4.9 120 / 221016.4 5.4 27.024.124.0
2018-Jul-13 20:30N 37°26' E 006°35'918.1
2018-Jul-13 20:00N 37°25' E 006°23'918.0
2018-Jul-13 19:30N 37°24' E 006°12'917.7
2018-Jul-13 19:00N 37°23' E 006°01'917.2
2018-Jul-13 18:30N 37°22' E 005°50'3017.1
2018-Jul-13 16:46N 37°21' E 005°13'517.6
2018-Jul-13 16:30N 37°21' E 005°07'917.8
2018-Jul-13 16:00N 37°19' E 004°56'918.0
2018-Jul-13 15:30N 37°18' E 004°45'917.9
2018-Jul-13 15:00N 37°17' E 004°33'917.9
2018-Jul-13 14:30N 37°16' E 004°22'1817.6
2018-Jul-13 13:30N 37°14' E 004°00'2617.2
2018-Jul-13 11:58N 37°11' E 003°27'817.8
2018-Jul-13 11:30N 37°11' E 003°17'918.2
2018-Jul-13 11:00N 37°10' E 003°06'1218.4
2018-Jul-13 10:19N 37°08' E 002°50'4419.1
2018-Jul-13 08:02N 36°60' E 001°57'119.7
2018-Jul-13 08:00N 36°60' E 001°56'1819.2
2018-Jul-13 07:03N 36°56' E 001°33'218.8
2018-Jul-13 06:57N 36°55' E 001°31'818.7
2018-Jul-13 06:30N 36°53' E 001°21'1018.6
2018-Jul-13 05:59N 36°52' E 001°09'918.4
2018-Jul-13 05:28N 36°50' E 000°57'918.2
2018-Jul-13 05:00N 36°48' E 000°47'1018.3
2018-Jul-13 04:29N 36°46' E 000°35'918.5
2018-Jul-13 04:00N 36°44' E 000°24'1018.8
2018-Jul-13 03:29N 36°43' E 000°13'918.7
2018-Jul-13 03:00N 36°41' E 000°02'1018.5
2018-Jul-13 02:29N 36°39' W 000°10'918.4
2018-Jul-13 01:58N 36°37' W 000°22'1018.1
2018-Jul-13 01:24N 36°35' W 000°34'718.0
2018-Jul-13 01:00N 36°33' W 000°43'918.3
2018-Jul-13 00:29N 36°32' W 000°54'2718.8
2018-Jul-12 23:02N 36°26' W 001°28'5219.5
2018-Jul-12 20:22N 36°17' W 002°31'719.2
2018-Jul-12 20:00N 36°16' W 002°40'12420.1
2018-Jul-12 13:50N 36°01' W 005°13'722.0
2018-Jul-12 13:30N 35°59' W 005°21'10919.8
2018-Jul-12 08:00N 36°06' W 007°36'814.3 260 / 71015.410.8 21.016.120.0
2018-Jul-12 07:27N 36°12' W 007°42'1518.6
2018-Jul-12 06:40N 36°16' W 007°60'418.4
2018-Jul-12 06:27N 36°17' W 008°04'1118.3
2018-Jul-12 05:52N 36°20' W 008°17'618.4
2018-Jul-12 05:30N 36°22' W 008°25'1918.4
2018-Jul-12 04:29N 36°27' W 008°47'2818.5
2018-Jul-12 02:57N 36°37' W 009°21'919.4
2018-Jul-12 02:30N 36°43' W 009°29'1018.1
2018-Jul-12 01:58N 36°51' W 009°35'1119.0
2018-Jul-12 01:24N 37°01' W 009°38'1019.3
2018-Jul-12 00:54N 37°11' W 009°41'2219.4
2018-Jul-11 23:47N 37°32' W 009°46'819.3
2018-Jul-11 23:20N 37°40' W 009°48'619.2
2018-Jul-11 23:00N 37°47' W 009°50'1019.2
2018-Jul-11 22:30N 37°56' W 009°53'918.9
2018-Jul-11 22:00N 38°05' W 009°55'919.1
2018-Jul-11 21:30N 38°14' W 009°58'1019.3
2018-Jul-11 21:00N 38°24' W 010°01'1019.5
2018-Jul-11 20:31N 38°33' W 010°04'1019.5
2018-Jul-11 20:00N 38°43' W 010°05'8499.9
2018-Jul-11 20:00N 38°36' W 010°00'1735.3 350 / 191017.4 5.4 19.017.418.0
2018-Jul-11 19:30N 38°53' W 010°05'1019.5
2018-Jul-11 19:00N 39°02' W 010°05'1019.6
2018-Jul-11 18:30N 39°12' W 010°05'1019.2
2018-Jul-11 18:00N 39°22' W 010°06'1019.2
2018-Jul-11 17:29N 39°32' W 010°06'919.2
2018-Jul-11 17:00N 39°41' W 010°06'1419.2
2018-Jul-11 16:18N 39°55' W 010°07'719.1
2018-Jul-11 15:55N 40°02' W 010°07'16017.9
2018-Jul-11 07:00N 42°42' W 010°06'25319.8 020 / 271018.4 5.4 19.017.417.0
2018-Jul-10 18:11N 46°33' W 007°39'419.1
2018-Jul-10 17:59N 46°36' W 007°36'1019.1
2018-Jul-10 17:29N 46°45' W 007°30'918.9
2018-Jul-10 17:00N 46°53' W 007°24'918.6
2018-Jul-10 16:30N 47°01' W 007°17'918.6
2018-Jul-10 16:00N 47°09' W 007°11'918.8
2018-Jul-10 15:30N 47°17' W 007°04'918.7
2018-Jul-10 15:00N 47°25' W 006°57'1019.0
2018-Jul-10 14:30N 47°33' W 006°50'918.9
2018-Jul-10 14:00N 47°41' W 006°42'917.9
2018-Jul-10 13:30N 47°50' W 006°37'918.4
2018-Jul-10 13:00N 47°58' W 006°30'918.0
2018-Jul-10 12:30N 48°06' W 006°25'1318.0
2018-Jul-10 11:48N 48°17' W 006°16'517.8
2018-Jul-10 11:30N 48°22' W 006°12'917.9
2018-Jul-10 11:00N 48°30' W 006°06'1018.1
2018-Jul-10 10:26N 48°39' W 005°59'818.3
2018-Jul-10 10:00N 48°46' W 005°54'917.8
2018-Jul-10 09:30N 48°53' W 005°47'917.1
2018-Jul-10 09:00N 48°58' W 005°36'1315.5
2018-Jul-10 08:11N 49°04' W 005°19'314.6
2018-Jul-10 08:00N 49°05' W 005°16'815.0
2018-Jul-10 07:29N 49°09' W 005°05'816.8
2018-Jul-10 07:00N 49°13' W 004°55'1018.7
2018-Jul-10 06:27N 49°19' W 004°41'919.0
2018-Jul-10 05:59N 49°23' W 004°29'1218.7
2018-Jul-10 05:21N 49°29' W 004°14'918.2
2018-Jul-10 04:53N 49°34' W 004°02'1317.6
2018-Jul-10 04:09N 49°40' W 003°45'1717.1
2018-Jul-10 03:10N 49°49' W 003°23'316.9
2018-Jul-10 02:59N 49°50' W 003°19'817.2
2018-Jul-10 02:30N 49°54' W 003°07'917.6
2018-Jul-10 02:00N 49°59' W 002°56'918.0
2018-Jul-10 01:31N 50°02' W 002°43'918.5
2018-Jul-10 01:00N 50°05' W 002°29'1019.0
2018-Jul-10 00:28N 50°08' W 002°14'1019.8
2018-Jul-09 23:57N 50°13' W 001°60'919.9
2018-Jul-09 23:30N 50°17' W 001°47'2020.2
2018-Jul-09 22:30N 50°26' W 001°19'1020.3
2018-Jul-09 22:00N 50°30' W 001°04'815.3
2018-Jul-09 21:30N 50°37' W 000°58'5 9.3
2018-Jul-09 21:00N 50°41' W 000°57'713.6
2018-Jul-09 20:31N 50°45' W 001°06'714.4
2018-Jul-09 20:01N 50°46' W 001°17'4 7.7
2018-Jul-09 19:31N 50°50' W 001°19'4 8.8
2018-Jul-09 19:01N 50°53' W 001°24'2 4.5
2018-Jul-09 18:30N 50°54' W 001°27'0 0.3
2018-Jul-09 17:51N 50°54' W 001°27'0 0.0
2018-Jul-09 17:24N 50°54' W 001°27'0 0.0
2018-Jul-09 16:54N 50°54' W 001°27'0 0.0
2018-Jul-09 16:21N 50°54' W 001°27'0 0.0
2018-Jul-09 15:54N 50°54' W 001°27'0 0.0
2018-Jul-09 15:27N 50°54' W 001°27'0 0.0
2018-Jul-09 15:00N 50°54' W 001°27'0 0.0
2018-Jul-09 14:27N 50°54' W 001°27'0 0.0
2018-Jul-09 13:54N 50°54' W 001°27'0 0.0
2018-Jul-09 13:27N 50°54' W 001°27'0 0.0
2018-Jul-09 12:57N 50°54' W 001°27'0 0.0
2018-Jul-09 12:27N 50°54' W 001°27'0 0.0
2018-Jul-09 11:57N 50°54' W 001°27'0 0.0
2018-Jul-09 11:30N 50°54' W 001°27'0 0.0
2018-Jul-09 11:00N 50°54' W 001°27'0 0.0
2018-Jul-09 10:30N 50°54' W 001°27'0 0.0
2018-Jul-09 10:00N 50°54' W 001°27'0 0.0
2018-Jul-09 09:30N 50°54' W 001°27'0 0.0
2018-Jul-09 09:00N 50°54' W 001°27'0 0.0
2018-Jul-09 08:30N 50°54' W 001°27'0 0.0
2018-Jul-09 08:00N 50°54' W 001°27'0 0.0
2018-Jul-09 07:24N 50°54' W 001°27'0 0.0
2018-Jul-09 07:00N 50°54' W 001°27'0 0.0
2018-Jul-09 06:21N 50°54' W 001°27'0 0.0
2018-Jul-09 06:00N 50°54' W 001°27'0 0.0
2018-Jul-09 05:30N 50°54' W 001°27'0 0.0
2018-Jul-09 04:54N 50°54' W 001°27'0 0.0
2018-Jul-09 04:30N 50°54' W 001°27'0 0.0
2018-Jul-09 04:00N 50°54' W 001°27'0 0.0
2018-Jul-09 03:30N 50°54' W 001°27'0 0.0
2018-Jul-09 03:00N 50°54' W 001°27'0 0.0
2018-Jul-09 02:24N 50°54' W 001°27'0 0.0
2018-Jul-09 02:00N 50°54' W 001°27'0 0.0
2018-Jul-09 01:27N 50°54' W 001°27'0 0.0
2018-Jul-09 01:00N 50°54' W 001°27'0 0.0
2018-Jul-09 00:30N 50°54' W 001°27'0 0.0
2018-Jul-09 00:00N 50°54' W 001°27'0 0.0
2018-Jul-08 23:30N 50°54' W 001°27'0 0.0
2018-Jul-08 22:57N 50°54' W 001°27'0 0.0
2018-Jul-08 22:27N 50°54' W 001°27'0 0.0
2018-Jul-08 22:00N 50°54' W 001°27'0 0.0
2018-Jul-08 21:30N 50°54' W 001°27'0 0.0
2018-Jul-08 21:00N 50°54' W 001°27'0 0.0
2018-Jul-08 20:30N 50°54' W 001°27'0 0.0
2018-Jul-08 20:00N 50°54' W 001°27'0 0.0
2018-Jul-08 19:30N 50°54' W 001°27'0 0.0
2018-Jul-08 19:00N 50°54' W 001°27'0 0.0
2018-Jul-08 18:30N 50°54' W 001°27'0 0.0
2018-Jul-08 18:00N 50°54' W 001°27'0 0.0
2018-Jul-08 17:30N 50°54' W 001°27'0 0.0
2018-Jul-08 17:00N 50°54' W 001°27'0 0.0
2018-Jul-08 16:30N 50°54' W 001°27'0 0.0
2018-Jul-08 15:54N 50°54' W 001°27'0 0.0
2018-Jul-08 15:30N 50°54' W 001°27'0 0.0
2018-Jul-08 14:51N 50°54' W 001°27'0 0.0
2018-Jul-08 14:30N 50°54' W 001°27'0 0.0
2018-Jul-08 13:57N 50°54' W 001°27'0 0.0
2018-Jul-08 13:30N 50°54' W 001°27'0 0.0
2018-Jul-08 12:57N 50°54' W 001°27'0 0.0
2018-Jul-08 12:27N 50°54' W 001°27'0 0.0
2018-Jul-08 12:00N 50°54' W 001°27'0 0.0
2018-Jul-08 11:30N 50°54' W 001°27'0 0.0
2018-Jul-08 10:54N 50°54' W 001°27'0 0.0
2018-Jul-08 10:24N 50°54' W 001°27'0 0.0
2018-Jul-08 09:54N 50°54' W 001°27'0 0.0
2018-Jul-08 09:30N 50°54' W 001°27'1 1.1
2018-Jul-08 09:00N 50°54' W 001°26'1 1.8
2018-Jul-08 08:30N 50°54' W 001°25'4 7.3
2018-Jul-08 08:00N 50°51' W 001°21'4 8.2
2018-Jul-08 07:30N 50°48' W 001°19'611.4
2018-Jul-08 07:01N 50°46' W 001°10'816.3
2018-Jul-08 06:30N 50°43' W 000°58'612.5
2018-Jul-08 06:01N 50°36' W 000°57'1 2.1
2018-Jul-08 05:31N 50°36' W 000°59'2 5.0
2018-Jul-08 05:01N 50°36' W 001°03'0 0.2
2018-Jul-08 04:30N 50°36' W 001°03'0 0.0
2018-Jul-08 04:00N 50°36' W 001°03'0 0.0
2018-Jul-08 03:30N 50°36' W 001°03'0 0.0
2018-Jul-08 03:00N 50°36' W 001°03'0 0.0
2018-Jul-08 02:27N 50°36' W 001°03'0 0.0
2018-Jul-08 02:00N 50°36' W 001°03'0 0.0
2018-Jul-08 01:30N 50°36' W 001°03'0 0.0
2018-Jul-08 01:00N 50°36' W 001°03'0 0.0
2018-Jul-08 00:30N 50°36' W 001°03'0 0.1
2018-Jul-08 00:00N 50°36' W 001°03'0 0.3
2018-Jul-07 23:30N 50°36' W 001°03'0 0.2
2018-Jul-07 23:00N 50°36' W 001°03'  

Dump ship's entire track history